sensor_id;sensor_type;location;lat;lon;timestamp;pressure;altitude;pressure_sealevel;temperature;humidity
39405;BME280;25121;51.090;17.038;2023-05-15T00:00:01;99636.38;;;14.83;nan
39405;BME280;25121;51.090;17.038;2023-05-15T00:01:31;99635.34;;;14.84;nan
39405;BME280;25121;51.090;17.038;2023-05-15T00:02:56;99639.06;;;14.83;nan
39405;BME280;25121;51.090;17.038;2023-05-15T00:04:17;99631.19;;;14.81;nan
39405;BME280;25121;51.090;17.038;2023-05-15T00:05:40;99625.53;;;14.83;nan
39405;BME280;25121;51.090;17.038;2023-05-15T00:07:02;99628.25;;;14.83;nan
39405;BME280;25121;51.090;17.038;2023-05-15T00:08:25;99624.53;;;14.84;nan
39405;BME280;25121;51.090;17.038;2023-05-15T00:09:48;99615.59;;;14.83;nan
39405;BME280;25121;51.090;17.038;2023-05-15T00:11:12;99615.78;;;14.82;nan
39405;BME280;25121;51.090;17.038;2023-05-15T00:12:33;99610.75;;;14.85;nan
39405;BME280;25121;51.090;17.038;2023-05-15T00:13:56;99605.59;;;14.84;nan
39405;BME280;25121;51.090;17.038;2023-05-15T00:15:18;99615.97;;;14.87;nan
39405;BME280;25121;51.090;17.038;2023-05-15T00:16:50;99610.34;;;14.89;nan
39405;BME280;25121;51.090;17.038;2023-05-15T00:18:32;99608.47;;;14.89;nan
39405;BME280;25121;51.090;17.038;2023-05-15T00:20:16;99589.56;;;14.82;nan
39405;BME280;25121;51.090;17.038;2023-05-15T00:21:58;99602.44;;;14.87;nan
39405;BME280;25121;51.090;17.038;2023-05-15T00:23:24;99601.81;;;14.92;nan
39405;BME280;25121;51.090;17.038;2023-05-15T00:24:49;99596.19;;;14.93;nan
39405;BME280;25121;51.090;17.038;2023-05-15T00:26:11;99591.59;;;14.94;nan
39405;BME280;25121;51.090;17.038;2023-05-15T00:27:35;99594.06;;;14.95;nan
39405;BME280;25121;51.090;17.038;2023-05-15T00:28:56;99586.81;;;14.96;nan
39405;BME280;25121;51.090;17.038;2023-05-15T00:30:19;99595.75;;;14.96;nan
39405;BME280;25121;51.090;17.038;2023-05-15T00:31:40;99582.22;;;14.96;nan
39405;BME280;25121;51.090;17.038;2023-05-15T00:33:15;99584.94;;;14.96;nan
39405;BME280;25121;51.090;17.038;2023-05-15T00:34:38;99571.41;;;14.96;nan
39405;BME280;25121;51.090;17.038;2023-05-15T00:36:00;99573.50;;;14.94;nan
39405;BME280;25121;51.090;17.038;2023-05-15T00:37:28;99574.09;;;14.96;nan
39405;BME280;25121;51.090;17.038;2023-05-15T00:38:52;99562.47;;;14.96;nan
39405;BME280;25121;51.090;17.038;2023-05-15T00:40:22;99559.53;;;14.97;nan
39405;BME280;25121;51.090;17.038;2023-05-15T00:41:45;99554.09;;;14.97;nan
39405;BME280;25121;51.090;17.038;2023-05-15T00:43:09;99557.63;;;14.98;nan
39405;BME280;25121;51.090;17.038;2023-05-15T00:44:32;99550.59;;;14.97;nan
39405;BME280;25121;51.090;17.038;2023-05-15T00:45:57;99544.09;;;14.98;nan
39405;BME280;25121;51.090;17.038;2023-05-15T00:47:20;99544.34;;;14.96;nan
39405;BME280;25121;51.090;17.038;2023-05-15T00:48:44;99543.28;;;14.97;nan
39405;BME280;25121;51.090;17.038;2023-05-15T00:50:07;99532.91;;;14.94;nan
39405;BME280;25121;51.090;17.038;2023-05-15T00:51:32;99530.19;;;14.94;nan
39405;BME280;25121;51.090;17.038;2023-05-15T00:52:55;99530.00;;;14.96;nan
39405;BME280;25121;51.090;17.038;2023-05-15T00:54:18;99528.13;;;14.96;nan
39405;BME280;25121;51.090;17.038;2023-05-15T00:55:41;99514.41;;;14.91;nan
39405;BME280;25121;51.090;17.038;2023-05-15T00:57:04;99521.25;;;14.94;nan
39405;BME280;25121;51.090;17.038;2023-05-15T00:58:26;99519.38;;;14.94;nan
39405;BME280;25121;51.090;17.038;2023-05-15T00:59:59;99521.25;;;14.94;nan
39405;BME280;25121;51.090;17.038;2023-05-15T01:01:21;99517.72;;;14.93;nan
39405;BME280;25121;51.090;17.038;2023-05-15T01:02:48;99524.19;;;14.92;nan
39405;BME280;25121;51.090;17.038;2023-05-15T01:04:10;99525.00;;;14.93;nan
39405;BME280;25121;51.090;17.038;2023-05-15T01:05:32;99531.66;;;14.90;nan
39405;BME280;25121;51.090;17.038;2023-05-15T01:06:54;99537.69;;;14.92;nan
39405;BME280;25121;51.090;17.038;2023-05-15T01:08:20;99525.22;;;14.91;nan
39405;BME280;25121;51.090;17.038;2023-05-15T01:09:46;99520.84;;;14.90;nan
39405;BME280;25121;51.090;17.038;2023-05-15T01:11:13;99510.03;;;14.90;nan
39405;BME280;25121;51.090;17.038;2023-05-15T01:12:36;99503.81;;;14.90;nan
39405;BME280;25121;51.090;17.038;2023-05-15T01:14:05;99502.97;;;14.89;nan
39405;BME280;25121;51.090;17.038;2023-05-15T01:15:35;99514.63;;;14.90;nan
39405;BME280;25121;51.090;17.038;2023-05-15T01:17:00;99511.09;;;14.89;nan
39405;BME280;25121;51.090;17.038;2023-05-15T01:18:21;99511.28;;;14.88;nan
39405;BME280;25121;51.090;17.038;2023-05-15T01:19:45;99503.19;;;14.88;nan
39405;BME280;25121;51.090;17.038;2023-05-15T01:21:36;99505.25;;;14.85;nan
39405;BME280;25121;51.090;17.038;2023-05-15T01:23:08;99496.16;;;14.80;nan
39405;BME280;25121;51.090;17.038;2023-05-15T01:27:10;99519.06;;;14.77;nan
39405;BME280;25121;51.090;17.038;2023-05-15T01:28:38;99512.19;;;14.75;nan
39405;BME280;25121;51.090;17.038;2023-05-15T01:30:08;99507.25;;;14.72;nan
39405;BME280;25121;51.090;17.038;2023-05-15T01:31:37;99502.03;;;14.70;nan
39405;BME280;25121;51.090;17.038;2023-05-15T01:33:07;99499.56;;;14.69;nan
39405;BME280;25121;51.090;17.038;2023-05-15T01:34:36;99498.94;;;14.67;nan
39405;BME280;25121;51.090;17.038;2023-05-15T01:36:05;99507.50;;;14.63;nan
39405;BME280;25121;51.090;17.038;2023-05-15T01:37:31;99505.81;;;14.62;nan
39405;BME280;25121;51.090;17.038;2023-05-15T01:38:56;99503.13;;;14.62;nan
39405;BME280;25121;51.090;17.038;2023-05-15T01:40:21;99503.13;;;14.62;nan
39405;BME280;25121;51.090;17.038;2023-05-15T01:41:49;99506.88;;;14.61;nan
39405;BME280;25121;51.090;17.038;2023-05-15T01:43:21;99488.97;;;14.60;nan
39405;BME280;25121;51.090;17.038;2023-05-15T01:44:47;99488.97;;;14.60;nan
39405;BME280;25121;51.090;17.038;2023-05-15T01:46:16;99488.78;;;14.62;nan
39405;BME280;25121;51.090;17.038;2023-05-15T01:47:43;99489.84;;;14.61;nan
39405;BME280;25121;51.090;17.038;2023-05-15T01:49:08;99496.28;;;14.60;nan
39405;BME280;25121;51.090;17.038;2023-05-15T01:50:33;99494.38;;;14.60;nan
39405;BME280;25121;51.090;17.038;2023-05-15T01:52:00;99482.75;;;14.60;nan
39405;BME280;25121;51.090;17.038;2023-05-15T01:53:25;99478.41;;;14.59;nan
39405;BME280;25121;51.090;17.038;2023-05-15T01:54:48;99480.28;;;14.58;nan
39405;BME280;25121;51.090;17.038;2023-05-15T01:56:12;99481.94;;;14.59;nan
39405;BME280;25121;51.090;17.038;2023-05-15T01:57:36;99475.69;;;14.59;nan
39405;BME280;25121;51.090;17.038;2023-05-15T01:58:59;99480.28;;;14.58;nan
39405;BME280;25121;51.090;17.038;2023-05-15T02:00:22;99473.19;;;14.57;nan
39405;BME280;25121;51.090;17.038;2023-05-15T02:01:45;99467.59;;;14.59;nan
39405;BME280;25121;51.090;17.038;2023-05-15T02:03:07;99459.47;;;14.59;nan
39405;BME280;25121;51.090;17.038;2023-05-15T02:04:30;99461.13;;;14.60;nan
39405;BME280;25121;51.090;17.038;2023-05-15T02:05:53;99454.06;;;14.59;nan
39405;BME280;25121;51.090;17.038;2023-05-15T02:07:18;99459.47;;;14.59;nan
39405;BME280;25121;51.090;17.038;2023-05-15T02:08:41;99456.78;;;14.59;nan
39405;BME280;25121;51.090;17.038;2023-05-15T02:10:03;99461.34;;;14.58;nan
39405;BME280;25121;51.090;17.038;2023-05-15T02:11:25;99455.94;;;14.58;nan
39405;BME280;25121;51.090;17.038;2023-05-15T02:12:48;99453.44;;;14.57;nan
39405;BME280;25121;51.090;17.038;2023-05-15T02:14:11;99450.53;;;14.58;nan
39405;BME280;25121;51.090;17.038;2023-05-15T02:15:36;99448.84;;;14.57;nan
39405;BME280;25121;51.090;17.038;2023-05-15T02:17:01;99446.97;;;14.58;nan
39405;BME280;25121;51.090;17.038;2023-05-15T02:18:23;99442.63;;;14.57;nan
39405;BME280;25121;51.090;17.038;2023-05-15T02:19:47;99446.41;;;14.56;nan
39405;BME280;25121;51.090;17.038;2023-05-15T02:21:09;99446.59;;;14.54;nan
39405;BME280;25121;51.090;17.038;2023-05-15T02:22:32;99440.38;;;14.54;nan
39405;BME280;25121;51.090;17.038;2023-05-15T02:23:53;99442.44;;;14.52;nan
39405;BME280;25121;51.090;17.038;2023-05-15T02:25:15;99443.44;;;14.51;nan
39405;BME280;25121;51.090;17.038;2023-05-15T02:26:45;99436.41;;;14.50;nan
39405;BME280;25121;51.090;17.038;2023-05-15T02:28:16;99430.38;;;14.48;nan
39405;BME280;25121;51.090;17.038;2023-05-15T02:29:54;99417.91;;;14.47;nan
39405;BME280;25121;51.090;17.038;2023-05-15T02:31:25;99412.72;;;14.45;nan
39405;BME280;25121;51.090;17.038;2023-05-15T02:33:01;99415.41;;;14.45;nan
39405;BME280;25121;51.090;17.038;2023-05-15T02:34:30;99414.38;;;14.46;nan
39405;BME280;25121;51.090;17.038;2023-05-15T02:35:58;99406.69;;;14.43;nan
39405;BME280;25121;51.090;17.038;2023-05-15T02:37:26;99406.50;;;14.44;nan
39405;BME280;25121;51.090;17.038;2023-05-15T02:38:50;99400.47;;;14.42;nan
39405;BME280;25121;51.090;17.038;2023-05-15T02:40:14;99392.16;;;14.44;nan
39405;BME280;25121;51.090;17.038;2023-05-15T02:41:38;99392.16;;;14.44;nan
39405;BME280;25121;51.090;17.038;2023-05-15T02:43:01;99396.72;;;14.43;nan
39405;BME280;25121;51.090;17.038;2023-05-15T02:44:24;99389.44;;;14.44;nan
39405;BME280;25121;51.090;17.038;2023-05-15T02:45:47;99388.63;;;14.43;nan
39405;BME280;25121;51.090;17.038;2023-05-15T02:47:11;99385.91;;;14.43;nan
39405;BME280;25121;51.090;17.038;2023-05-15T02:48:32;99390.28;;;14.44;nan
39405;BME280;25121;51.090;17.038;2023-05-15T02:49:55;99384.03;;;14.44;nan
39405;BME280;25121;51.090;17.038;2023-05-15T02:51:19;99375.94;;;14.44;nan
39405;BME280;25121;51.090;17.038;2023-05-15T02:52:42;99379.91;;;14.41;nan
39405;BME280;25121;51.090;17.038;2023-05-15T02:54:03;99376.13;;;14.42;nan
39405;BME280;25121;51.090;17.038;2023-05-15T02:55:26;99367.22;;;14.42;nan
39405;BME280;25121;51.090;17.038;2023-05-15T02:56:47;99365.31;;;14.42;nan
39405;BME280;25121;51.090;17.038;2023-05-15T02:58:09;99359.09;;;14.42;nan
39405;BME280;25121;51.090;17.038;2023-05-15T02:59:34;99362.63;;;14.42;nan
39405;BME280;25121;51.090;17.038;2023-05-15T03:00:59;99361.81;;;14.42;nan
39405;BME280;25121;51.090;17.038;2023-05-15T03:02:23;99357.84;;;14.44;nan
39405;BME280;25121;51.090;17.038;2023-05-15T03:03:46;99362.19;;;14.46;nan
39405;BME280;25121;51.090;17.038;2023-05-15T03:05:08;99346.19;;;14.44;nan
39405;BME280;25121;51.090;17.038;2023-05-15T03:06:30;99353.84;;;14.47;nan
39405;BME280;25121;51.090;17.038;2023-05-15T03:07:52;99349.50;;;14.46;nan
39405;BME280;25121;51.090;17.038;2023-05-15T03:09:13;99345.78;;;14.40;nan
39405;BME280;25121;51.090;17.038;2023-05-15T03:10:35;99342.66;;;14.43;nan
39405;BME280;25121;51.090;17.038;2023-05-15T03:11:57;99343.50;;;14.44;nan
39405;BME280;25121;51.090;17.038;2023-05-15T03:13:20;99340.56;;;14.46;nan
39405;BME280;25121;51.090;17.038;2023-05-15T03:14:42;99340.56;;;14.46;nan
39405;BME280;25121;51.090;17.038;2023-05-15T03:16:06;99336.00;;;14.46;nan
39405;BME280;25121;51.090;17.038;2023-05-15T03:17:28;99331.41;;;14.47;nan
39405;BME280;25121;51.090;17.038;2023-05-15T03:18:50;99326.81;;;14.47;nan
39405;BME280;25121;51.090;17.038;2023-05-15T03:20:14;99331.19;;;14.48;nan
39405;BME280;25121;51.090;17.038;2023-05-15T03:21:35;99329.09;;;14.50;nan
39405;BME280;25121;51.090;17.038;2023-05-15T03:22:58;99329.69;;;14.52;nan
39405;BME280;25121;51.090;17.038;2023-05-15T03:24:20;99329.69;;;14.52;nan
39405;BME280;25121;51.090;17.038;2023-05-15T03:25:41;99323.25;;;14.53;nan
39405;BME280;25121;51.090;17.038;2023-05-15T03:27:07;99322.03;;;14.56;nan
39405;BME280;25121;51.090;17.038;2023-05-15T03:28:31;99325.56;;;14.56;nan
39405;BME280;25121;51.090;17.038;2023-05-15T03:29:53;99313.91;;;14.56;nan
39405;BME280;25121;51.090;17.038;2023-05-15T03:31:15;99326.38;;;14.57;nan
39405;BME280;25121;51.090;17.038;2023-05-15T03:32:37;99318.88;;;14.59;nan
39405;BME280;25121;51.090;17.038;2023-05-15T03:33:59;99321.59;;;14.59;nan
39405;BME280;25121;51.090;17.038;2023-05-15T03:35:22;99309.94;;;14.58;nan
39405;BME280;25121;51.090;17.038;2023-05-15T03:36:43;99310.16;;;14.57;nan
39405;BME280;25121;51.090;17.038;2023-05-15T03:38:06;99305.56;;;14.57;nan
39405;BME280;25121;51.090;17.038;2023-05-15T03:39:36;99309.34;;;14.56;nan
39405;BME280;25121;51.090;17.038;2023-05-15T03:40:59;99303.94;;;14.56;nan
39405;BME280;25121;51.090;17.038;2023-05-15T03:42:24;99303.09;;;14.56;nan
39405;BME280;25121;51.090;17.038;2023-05-15T03:43:47;99298.53;;;14.56;nan
39405;BME280;25121;51.090;17.038;2023-05-15T03:45:14;99304.94;;;14.55;nan
39405;BME280;25121;51.090;17.038;2023-05-15T03:46:42;99294.19;;;14.49;nan
39405;BME280;25121;51.090;17.038;2023-05-15T03:48:05;99296.66;;;14.50;nan
39405;BME280;25121;51.090;17.038;2023-05-15T03:49:31;99303.72;;;14.51;nan
39405;BME280;25121;51.090;17.038;2023-05-15T03:50:58;99301.03;;;14.51;nan
39405;BME280;25121;51.090;17.038;2023-05-15T03:52:23;99295.00;;;14.49;nan
39405;BME280;25121;51.090;17.038;2023-05-15T03:53:44;99289.59;;;14.49;nan
39405;BME280;25121;51.090;17.038;2023-05-15T03:55:07;99286.06;;;14.49;nan
39405;BME280;25121;51.090;17.038;2023-05-15T03:56:28;99286.44;;;14.52;nan
39405;BME280;25121;51.090;17.038;2023-05-15T03:57:50;99291.84;;;14.52;nan
39405;BME280;25121;51.090;17.038;2023-05-15T03:59:13;99291.84;;;14.52;nan
39405;BME280;25121;51.090;17.038;2023-05-15T04:00:36;99296.44;;;14.52;nan
39405;BME280;25121;51.090;17.038;2023-05-15T04:02:01;99289.97;;;14.53;nan
39405;BME280;25121;51.090;17.038;2023-05-15T04:03:25;99294.56;;;14.52;nan
39405;BME280;25121;51.090;17.038;2023-05-15T04:04:48;99293.94;;;14.50;nan
39405;BME280;25121;51.090;17.038;2023-05-15T04:06:14;99296.44;;;14.52;nan
39405;BME280;25121;51.090;17.038;2023-05-15T04:07:38;99283.13;;;14.50;nan
39405;BME280;25121;51.090;17.038;2023-05-15T04:09:00;99288.31;;;14.52;nan
39405;BME280;25121;51.090;17.038;2023-05-15T04:10:24;99292.91;;;14.51;nan
39405;BME280;25121;51.090;17.038;2023-05-15T04:11:47;99286.44;;;14.52;nan
39405;BME280;25121;51.090;17.038;2023-05-15T04:13:08;99287.50;;;14.51;nan
39405;BME280;25121;51.090;17.038;2023-05-15T04:14:31;99291.84;;;14.52;nan
39405;BME280;25121;51.090;17.038;2023-05-15T04:15:55;99287.25;;;14.53;nan
39405;BME280;25121;51.090;17.038;2023-05-15T04:17:20;99282.91;;;14.52;nan
39405;BME280;25121;51.090;17.038;2023-05-15T04:18:42;99282.91;;;14.52;nan
39405;BME280;25121;51.090;17.038;2023-05-15T04:20:05;99284.56;;;14.53;nan
39405;BME280;25121;51.090;17.038;2023-05-15T04:21:28;99287.25;;;14.53;nan
39405;BME280;25121;51.090;17.038;2023-05-15T04:22:51;99275.63;;;14.52;nan
39405;BME280;25121;51.090;17.038;2023-05-15T04:24:16;99284.56;;;14.53;nan
39405;BME280;25121;51.090;17.038;2023-05-15T04:25:38;99285.22;;;14.55;nan
39405;BME280;25121;51.090;17.038;2023-05-15T04:27:06;99285.22;;;14.55;nan
39405;BME280;25121;51.090;17.038;2023-05-15T04:28:27;99281.84;;;14.53;nan
39405;BME280;25121;51.090;17.038;2023-05-15T04:29:50;99281.84;;;14.53;nan
39405;BME280;25121;51.090;17.038;2023-05-15T04:31:11;99291.25;;;14.50;nan
39405;BME280;25121;51.090;17.038;2023-05-15T04:32:35;99286.44;;;14.52;nan
39405;BME280;25121;51.090;17.038;2023-05-15T04:33:58;99285.22;;;14.55;nan
39405;BME280;25121;51.090;17.038;2023-05-15T04:35:19;99277.91;;;14.55;nan
39405;BME280;25121;51.090;17.038;2023-05-15T04:36:41;99282.06;;;14.58;nan
39405;BME280;25121;51.090;17.038;2023-05-15T04:38:06;99285.38;;;14.60;nan
39405;BME280;25121;51.090;17.038;2023-05-15T04:39:29;99279.75;;;14.61;nan
39405;BME280;25121;51.090;17.038;2023-05-15T04:40:51;99280.38;;;14.63;nan
39405;BME280;25121;51.090;17.038;2023-05-15T04:42:17;99274.72;;;14.65;nan
39405;BME280;25121;51.090;17.038;2023-05-15T04:43:42;99277.22;;;14.67;nan
39405;BME280;25121;51.090;17.038;2023-05-15T04:45:05;99279.69;;;14.68;nan
39405;BME280;25121;51.090;17.038;2023-05-15T04:46:28;99278.41;;;14.71;nan
39405;BME280;25121;51.090;17.038;2023-05-15T04:48:00;99274.88;;;14.70;nan
39405;BME280;25121;51.090;17.038;2023-05-15T04:49:31;99271.16;;;14.71;nan
39405;BME280;25121;51.090;17.038;2023-05-15T04:51:08;99263.69;;;14.67;nan
39405;BME280;25121;51.090;17.038;2023-05-15T04:52:32;99272.19;;;14.70;nan
39405;BME280;25121;51.090;17.038;2023-05-15T04:53:53;99254.91;;;14.71;nan
39405;BME280;25121;51.090;17.038;2023-05-15T04:55:20;99262.56;;;14.74;nan
39405;BME280;25121;51.090;17.038;2023-05-15T04:56:44;99255.06;;;14.76;nan
39405;BME280;25121;51.090;17.038;2023-05-15T04:58:05;99256.34;;;14.74;nan
39405;BME280;25121;51.090;17.038;2023-05-15T04:59:29;99256.09;;;14.75;nan
39405;BME280;25121;51.090;17.038;2023-05-15T05:00:50;99259.66;;;14.76;nan
39405;BME280;25121;51.090;17.038;2023-05-15T05:02:12;99250.50;;;14.77;nan
39405;BME280;25121;51.090;17.038;2023-05-15T05:03:38;99250.50;;;14.77;nan
39405;BME280;25121;51.090;17.038;2023-05-15T05:05:04;99250.84;;;14.80;nan
39405;BME280;25121;51.090;17.038;2023-05-15T05:06:25;99248.16;;;14.80;nan
39405;BME280;25121;51.090;17.038;2023-05-15T05:07:50;99244.16;;;14.83;nan
39405;BME280;25121;51.090;17.038;2023-05-15T05:09:18;99243.13;;;14.84;nan
39405;BME280;25121;51.090;17.038;2023-05-15T05:10:41;99243.28;;;14.89;nan
39405;BME280;25121;51.090;17.038;2023-05-15T05:12:06;99249.31;;;14.91;nan
39405;BME280;25121;51.090;17.038;2023-05-15T05:13:30;99250.75;;;14.94;nan
39405;BME280;25121;51.090;17.038;2023-05-15T05:14:56;99254.47;;;14.93;nan
39405;BME280;25121;51.090;17.038;2023-05-15T05:16:30;99242.22;;;14.90;nan
39405;BME280;25121;51.090;17.038;2023-05-15T05:17:53;99243.66;;;14.93;nan
39405;BME280;25121;51.090;17.038;2023-05-15T05:19:20;99233.53;;;14.88;nan
39405;BME280;25121;51.090;17.038;2023-05-15T05:20:44;99237.44;;;14.92;nan
39405;BME280;25121;51.090;17.038;2023-05-15T05:22:07;99239.91;;;14.94;nan
39405;BME280;25121;51.090;17.038;2023-05-15T05:23:29;99234.88;;;14.97;nan
39405;BME280;25121;51.090;17.038;2023-05-15T05:24:53;99231.97;;;14.99;nan
39405;BME280;25121;51.090;17.038;2023-05-15T05:26:14;99231.50;;;15.02;nan
39405;BME280;25121;51.090;17.038;2023-05-15T05:27:37;99234.00;;;15.03;nan
39405;BME280;25121;51.090;17.038;2023-05-15T05:29:03;99225.88;;;15.03;nan
39405;BME280;25121;51.090;17.038;2023-05-15T05:30:34;99228.34;;;15.05;nan
39405;BME280;25121;51.090;17.038;2023-05-15T05:31:56;99222.31;;;15.03;nan
39405;BME280;25121;51.090;17.038;2023-05-15T05:33:18;99228.47;;;15.10;nan
39405;BME280;25121;51.090;17.038;2023-05-15T05:34:45;99226.63;;;15.11;nan
39405;BME280;25121;51.090;17.038;2023-05-15T05:36:06;99228.28;;;15.12;nan
39405;BME280;25121;51.090;17.038;2023-05-15T05:37:30;99230.38;;;15.10;nan
39405;BME280;25121;51.090;17.038;2023-05-15T05:38:52;99223.06;;;15.10;nan
39405;BME280;25121;51.090;17.038;2023-05-15T05:40:14;99232.03;;;15.11;nan
39405;BME280;25121;51.090;17.038;2023-05-15T05:41:37;99222.84;;;15.12;nan
39405;BME280;25121;51.090;17.038;2023-05-15T05:42:59;99213.69;;;15.13;nan
39405;BME280;25121;51.090;17.038;2023-05-15T05:44:21;99214.28;;;15.15;nan
39405;BME280;25121;51.090;17.038;2023-05-15T05:45:42;99218.19;;;15.19;nan
39405;BME280;25121;51.090;17.038;2023-05-15T05:47:10;99215.03;;;15.22;nan
39405;BME280;25121;51.090;17.038;2023-05-15T05:48:38;99201.88;;;15.25;nan
39405;BME280;25121;51.090;17.038;2023-05-15T05:50:05;99194.34;;;15.27;nan
39405;BME280;25121;51.090;17.038;2023-05-15T05:51:30;99202.38;;;15.34;nan
39405;BME280;25121;51.090;17.038;2023-05-15T05:52:52;99197.13;;;15.39;nan
39405;BME280;25121;51.090;17.038;2023-05-15T05:54:14;99196.66;;;15.42;nan
39405;BME280;25121;51.090;17.038;2023-05-15T05:55:37;99194.34;;;15.46;nan
39405;BME280;25121;51.090;17.038;2023-05-15T05:57:02;99190.56;;;15.47;nan
39405;BME280;25121;51.090;17.038;2023-05-15T05:58:28;99190.09;;;15.50;nan
39405;BME280;25121;51.090;17.038;2023-05-15T05:59:50;99190.22;;;15.55;nan
39405;BME280;25121;51.090;17.038;2023-05-15T06:01:30;99189.41;;;15.55;nan
39405;BME280;25121;51.090;17.038;2023-05-15T06:02:56;99185.78;;;15.61;nan
39405;BME280;25121;51.090;17.038;2023-05-15T06:04:19;99189.69;;;15.65;nan
39405;BME280;25121;51.090;17.038;2023-05-15T06:05:42;99186.75;;;15.66;nan
39405;BME280;25121;51.090;17.038;2023-05-15T06:07:07;99182.97;;;15.67;nan
39405;BME280;25121;51.090;17.038;2023-05-15T06:08:33;99183.59;;;15.69;nan
39405;BME280;25121;51.090;17.038;2023-05-15T06:09:55;99176.28;;;15.70;nan
39405;BME280;25121;51.090;17.038;2023-05-15T06:11:17;99174.44;;;15.70;nan
39405;BME280;25121;51.090;17.038;2023-05-15T06:12:41;99171.91;;;15.69;nan
39405;BME280;25121;51.090;17.038;2023-05-15T06:14:05;99173.59;;;15.70;nan
39405;BME280;25121;51.090;17.038;2023-05-15T06:15:28;99177.97;;;15.71;nan
39405;BME280;25121;51.090;17.038;2023-05-15T06:16:49;99169.63;;;15.73;nan
39405;BME280;25121;51.090;17.038;2023-05-15T06:18:11;99167.47;;;15.75;nan
39405;BME280;25121;51.090;17.038;2023-05-15T06:19:32;99172.69;;;15.76;nan
39405;BME280;25121;51.090;17.038;2023-05-15T06:20:58;99168.91;;;15.77;nan
39405;BME280;25121;51.090;17.038;2023-05-15T06:22:23;99165.97;;;15.79;nan
39405;BME280;25121;51.090;17.038;2023-05-15T06:23:47;99172.59;;;15.83;nan
39405;BME280;25121;51.090;17.038;2023-05-15T06:25:13;99161.75;;;15.83;nan
39405;BME280;25121;51.090;17.038;2023-05-15T06:26:37;99166.09;;;15.84;nan
39405;BME280;25121;51.090;17.038;2023-05-15T06:28:00;99165.88;;;15.85;nan
39405;BME280;25121;51.090;17.038;2023-05-15T06:29:21;99162.91;;;15.87;nan
39405;BME280;25121;51.090;17.038;2023-05-15T06:30:43;99161.41;;;15.91;nan
39405;BME280;25121;51.090;17.038;2023-05-15T06:32:05;99158.47;;;15.92;nan
39405;BME280;25121;51.090;17.038;2023-05-15T06:33:28;99157.41;;;15.93;nan
39405;BME280;25121;51.090;17.038;2023-05-15T06:34:54;99160.13;;;15.93;nan
39405;BME280;25121;51.090;17.038;2023-05-15T06:36:18;99157.75;;;15.97;nan
39405;BME280;25121;51.090;17.038;2023-05-15T06:37:40;99157.06;;;16.02;nan
39405;BME280;25121;51.090;17.038;2023-05-15T06:39:02;99162.00;;;16.05;nan
39405;BME280;25121;51.090;17.038;2023-05-15T06:40:27;99155.88;;;16.09;nan
39405;BME280;25121;51.090;17.038;2023-05-15T06:41:52;99156.13;;;16.08;nan
39405;BME280;25121;51.090;17.038;2023-05-15T06:43:18;99160.97;;;16.06;nan
39405;BME280;25121;51.090;17.038;2023-05-15T06:44:40;99159.78;;;16.02;nan
39405;BME280;25121;51.090;17.038;2023-05-15T06:46:03;99154.00;;;15.98;nan
39405;BME280;25121;51.090;17.038;2023-05-15T06:47:27;99157.19;;;15.95;nan
39405;BME280;25121;51.090;17.038;2023-05-15T06:48:49;99148.69;;;15.91;nan
39405;BME280;25121;51.090;17.038;2023-05-15T06:50:19;99150.78;;;15.89;nan
39405;BME280;25121;51.090;17.038;2023-05-15T06:51:43;99144.56;;;15.89;nan
39405;BME280;25121;51.090;17.038;2023-05-15T06:53:07;99145.16;;;15.91;nan
39405;BME280;25121;51.090;17.038;2023-05-15T06:54:32;99153.19;;;15.98;nan
39405;BME280;25121;51.090;17.038;2023-05-15T06:55:57;99151.28;;;15.98;nan
39405;BME280;25121;51.090;17.038;2023-05-15T06:57:21;99151.63;;;16.02;nan
39405;BME280;25121;51.090;17.038;2023-05-15T06:58:43;99143.50;;;16.02;nan
39405;BME280;25121;51.090;17.038;2023-05-15T07:00:09;99145.75;;;16.05;nan
39405;BME280;25121;51.090;17.038;2023-05-15T07:01:32;99141.06;;;16.00;nan
39405;BME280;25121;51.090;17.038;2023-05-15T07:02:55;99146.81;;;16.04;nan
39405;BME280;25121;51.090;17.038;2023-05-15T07:04:18;99151.31;;;16.10;nan
39405;BME280;25121;51.090;17.038;2023-05-15T07:05:41;99149.16;;;16.12;nan
39405;BME280;25121;51.090;17.038;2023-05-15T07:07:06;99153.28;;;16.14;nan
39405;BME280;25121;51.090;17.038;2023-05-15T07:08:32;99144.94;;;16.16;nan
39405;BME280;25121;51.090;17.038;2023-05-15T07:10:05;99134.00;;;16.11;nan
39405;BME280;25121;51.090;17.038;2023-05-15T07:11:31;99138.81;;;16.09;nan
39405;BME280;25121;51.090;17.038;2023-05-15T07:13:06;99141.28;;;16.10;nan
39405;BME280;25121;51.090;17.038;2023-05-15T07:14:28;99133.50;;;16.14;nan
39405;BME280;25121;51.090;17.038;2023-05-15T07:15:54;99132.59;;;16.20;nan
39405;BME280;25121;51.090;17.038;2023-05-15T07:17:30;99140.34;;;16.28;nan
39405;BME280;25121;51.090;17.038;2023-05-15T07:19:16;99127.88;;;16.27;nan
39405;BME280;25121;51.090;17.038;2023-05-15T07:20:52;99122.56;;;16.32;nan
39405;BME280;25121;51.090;17.038;2023-05-15T07:22:20;99133.97;;;16.46;nan
39405;BME280;25121;51.090;17.038;2023-05-15T07:23:45;99132.31;;;16.57;nan
39405;BME280;25121;51.090;17.038;2023-05-15T07:25:07;99130.28;;;16.64;nan
39405;BME280;25121;51.090;17.038;2023-05-15T07:26:38;99131.00;;;16.71;nan
39405;BME280;25121;51.090;17.038;2023-05-15T07:28:17;99128.19;;;16.78;nan
39405;BME280;25121;51.090;17.038;2023-05-15T07:29:41;99129.94;;;16.84;nan
39405;BME280;25121;51.090;17.038;2023-05-15T07:31:05;99131.13;;;16.88;nan
39405;BME280;25121;51.090;17.038;2023-05-15T07:32:27;99136.91;;;16.92;nan
39405;BME280;25121;51.090;17.038;2023-05-15T07:33:51;99123.06;;;16.93;nan
39405;BME280;25121;51.090;17.038;2023-05-15T07:35:18;99118.84;;;16.86;nan
39405;BME280;25121;51.090;17.038;2023-05-15T07:36:48;99134.53;;;16.95;nan